Time;durP1;ratioP1;P1;durP2;ratioP2;P2;SDS_P1;SDS_P2;PMS_P1;PMS_P2;Temp;Humidity;BMP_temperature;BMP_pressure;BME280_temperature;BME280_humidity;BME280_pressure;Samples;Min_cycle;Max_cycle;Signal;HPM_P1;HPM_P2
2024/03/02 00:01:38;;;;;;;24.83;16.77;;;8.90;99.90;;;;;;5022678;28;20630;-74
2024/03/02 00:04:06;;;;;;;22.23;16.70;;;8.80;99.90;;;;;;5029915;28;20223;-73
2024/03/02 00:06:34;;;;;;;28.73;19.65;;;8.90;99.90;;;;;;5023519;28;20222;-74
2024/03/02 00:09:02;;;;;;;27.55;16.73;;;8.80;99.90;;;;;;5031465;28;20209;-73
2024/03/02 00:11:29;;;;;;;21.88;14.15;;;8.80;99.90;;;;;;5025464;28;20204;-75
2024/03/02 00:13:56;;;;;;;21.42;14.73;;;8.70;99.90;;;;;;5022806;28;20383;-75
2024/03/02 00:16:24;;;;;;;21.08;16.15;;;8.70;99.90;;;;;;5030330;28;20202;-75
2024/03/02 00:18:52;;;;;;;25.35;17.92;;;8.60;99.90;;;;;;5025641;28;20209;-71
2024/03/02 00:21:22;;;;;;;24.25;17.27;;;8.50;99.90;;;;;;5031955;28;20216;-74
2024/03/02 00:23:51;;;;;;;23.30;15.68;;;8.50;99.90;;;;;;5026932;28;20221;-73
2024/03/02 00:26:18;;;;;;;21.70;15.90;;;8.50;99.90;;;;;;5029827;28;20760;-73
2024/03/02 00:28:46;;;;;;;23.02;16.55;;;8.50;99.90;;;;;;5031506;28;20302;-72
2024/03/02 00:31:21;;;;;;;18.80;15.70;;;8.50;99.90;;;;;;5032822;28;20263;-74
2024/03/02 00:33:49;;;;;;;23.50;17.27;;;8.40;99.90;;;;;;5024426;28;20285;-74
2024/03/02 00:36:22;;;;;;;20.42;15.75;;;8.40;99.90;;;;;;5032475;28;20249;-73
2024/03/02 00:38:51;;;;;;;21.90;16.95;;;8.50;99.90;;;;;;5030630;28;20209;-73
2024/03/02 00:41:22;;;;;;;22.02;16.23;;;8.40;99.90;;;;;;5025038;28;20525;-73
2024/03/02 00:43:59;;;;;;;22.55;16.40;;;8.40;99.90;;;;;;5033396;28;20235;-73
2024/03/02 00:46:26;;;;;;;19.30;14.73;;;8.40;99.90;;;;;;5035668;28;20212;-75
2024/03/02 00:48:55;;;;;;;21.90;16.48;;;8.50;99.90;;;;;;5035153;28;20204;-77
2024/03/02 00:51:25;;;;;;;19.73;13.70;;;8.50;99.90;;;;;;5029952;28;20254;-73
2024/03/02 00:53:55;;;;;;;20.38;14.95;;;8.50;99.90;;;;;;5026266;28;20221;-72
2024/03/02 00:56:23;;;;;;;18.35;13.98;;;8.40;99.90;;;;;;5036392;28;20231;-73
2024/03/02 00:58:50;;;;;;;19.00;14.50;;;8.40;99.90;;;;;;5036338;28;20205;-73
2024/03/02 01:01:17;;;;;;;21.80;14.02;;;8.40;99.90;;;;;;5034733;28;20202;-73
2024/03/02 01:03:44;;;;;;;21.85;16.08;;;8.40;99.90;;;;;;5034999;28;20636;-72
2024/03/02 01:06:11;;;;;;;21.33;16.25;;;8.40;99.90;;;;;;5041765;28;20200;-71
2024/03/02 01:08:40;;;;;;;18.10;14.35;;;8.40;99.90;;;;;;5035466;28;20205;-74
2024/03/02 01:11:07;;;;;;;23.55;16.38;;;8.30;99.90;;;;;;5029890;28;20200;-73
2024/03/02 01:13:34;;;;;;;19.42;16.33;;;8.30;99.90;;;;;;5030219;28;20680;-74
2024/03/02 01:16:02;;;;;;;23.67;15.57;;;8.30;99.90;;;;;;5028851;28;20307;-72
2024/03/02 01:18:30;;;;;;;19.90;15.27;;;8.30;99.90;;;;;;5033058;28;20288;-72
2024/03/02 01:20:57;;;;;;;20.10;13.88;;;8.30;99.90;;;;;;5034506;28;20632;-73
2024/03/02 01:23:24;;;;;;;23.55;15.50;;;8.40;99.90;;;;;;5029097;28;20220;-72
2024/03/02 01:25:53;;;;;;;17.92;13.40;;;8.30;99.90;;;;;;5033751;28;20204;-73
2024/03/02 01:28:21;;;;;;;18.33;14.05;;;8.30;99.90;;;;;;5025956;28;20205;-71
2024/03/02 01:30:48;;;;;;;20.25;14.20;;;8.30;99.90;;;;;;5030819;28;20232;-74
2024/03/02 01:33:15;;;;;;;22.60;15.07;;;8.30;99.90;;;;;;5028595;28;20224;-73
2024/03/02 01:35:42;;;;;;;19.70;14.52;;;8.30;99.90;;;;;;5032457;28;20209;-74
2024/03/02 01:38:10;;;;;;;18.30;13.30;;;8.30;99.90;;;;;;5037701;28;20236;-71
2024/03/02 01:40:38;;;;;;;19.30;13.15;;;8.30;99.90;;;;;;5035438;28;20683;-73
2024/03/02 01:43:07;;;;;;;20.58;13.88;;;8.30;99.90;;;;;;5044146;28;20279;-73
2024/03/02 01:45:35;;;;;;;20.33;13.68;;;8.20;99.90;;;;;;5049285;28;20316;-73
2024/03/02 01:48:02;;;;;;;18.83;15.18;;;8.20;99.90;;;;;;5049047;28;20251;-71
2024/03/02 01:50:35;;;;;;;18.52;12.98;;;8.30;99.90;;;;;;5033117;28;20255;-72
2024/03/02 01:53:03;;;;;;;19.55;13.88;;;8.20;99.90;;;;;;5034209;28;20228;-74
2024/03/02 01:55:30;;;;;;;15.77;11.15;;;8.20;99.90;;;;;;5028389;28;20239;-76
2024/03/02 01:57:58;;;;;;;15.18;11.30;;;8.20;99.90;;;;;;5034149;28;20225;-72
2024/03/02 02:00:26;;;;;;;19.75;13.45;;;8.20;99.90;;;;;;5033637;28;20212;-71
2024/03/02 02:02:54;;;;;;;16.23;12.43;;;8.30;99.90;;;;;;5035239;28;20230;-72
2024/03/02 02:05:21;;;;;;;19.05;13.20;;;8.30;99.90;;;;;;5028937;28;20198;-72
2024/03/02 02:07:48;;;;;;;20.60;14.68;;;8.30;99.90;;;;;;5031378;28;20209;-73
2024/03/02 02:10:15;;;;;;;19.75;15.65;;;8.30;99.90;;;;;;5033419;28;20201;-72
2024/03/02 02:12:42;;;;;;;19.75;15.07;;;8.40;99.90;;;;;;5033515;28;20589;-74
2024/03/02 02:15:39;;;;;;;21.05;15.73;;;8.30;99.90;;;;;;5032642;28;20678;-72
2024/03/02 02:18:06;;;;;;;17.77;14.63;;;8.30;99.90;;;;;;5020015;28;20224;-72
2024/03/02 02:20:33;;;;;;;17.55;13.75;;;8.30;99.90;;;;;;5030372;28;20681;-74
2024/03/02 02:23:03;;;;;;;18.58;12.40;;;8.20;99.90;;;;;;5035975;28;20228;-74
2024/03/02 02:25:30;;;;;;;18.17;12.77;;;8.20;99.90;;;;;;5033041;28;20200;-74
2024/03/02 02:27:58;;;;;;;16.38;12.63;;;8.20;99.90;;;;;;5033468;28;20204;-72
2024/03/02 02:30:28;;;;;;;15.93;13.05;;;8.10;99.90;;;;;;5033677;28;20731;-73
2024/03/02 02:32:55;;;;;;;19.73;13.65;;;8.10;99.90;;;;;;5032755;28;20232;-72
2024/03/02 02:35:24;;;;;;;21.75;15.43;;;8.10;99.90;;;;;;5029916;28;20255;-73
2024/03/02 02:37:51;;;;;;;20.40;15.35;;;8.00;99.90;;;;;;5027681;28;20729;-72
2024/03/02 02:40:20;;;;;;;13.80;12.15;;;8.00;99.90;;;;;;5031460;28;20303;-73
2024/03/02 02:42:47;;;;;;;20.77;14.18;;;8.00;99.90;;;;;;5028804;28;20286;-73
2024/03/02 02:45:14;;;;;;;21.77;15.63;;;7.90;99.90;;;;;;5148658;22;20286;-73
2024/03/02 02:47:41;;;;;;;19.83;15.25;;;7.90;99.90;;;;;;5054012;28;20235;-72
2024/03/02 02:50:09;;;;;;;22.08;15.18;;;7.90;99.90;;;;;;5049797;28;20674;-74
2024/03/02 02:52:39;;;;;;;15.63;11.43;;;7.90;99.90;;;;;;5045603;28;20203;-72
2024/03/02 02:55:08;;;;;;;17.17;13.55;;;7.90;99.90;;;;;;5030338;28;20633;-73
2024/03/02 02:57:39;;;;;;;22.35;15.90;;;7.90;99.90;;;;;;5032884;28;20307;-72
2024/03/02 03:00:10;;;;;;;21.77;16.63;;;7.90;99.90;;;;;;5032937;28;21154;-72
2024/03/02 03:02:38;;;;;;;25.85;18.65;;;7.80;99.90;;;;;;5039620;28;20213;-73
2024/03/02 03:05:07;;;;;;;32.20;21.35;;;7.80;99.90;;;;;;5030938;28;20295;-74
2024/03/02 03:07:34;;;;;;;31.35;20.95;;;7.70;99.90;;;;;;5026517;28;20248;-72
2024/03/02 03:10:01;;;;;;;28.63;20.05;;;7.70;99.90;;;;;;5041640;28;20291;-74
2024/03/02 03:12:28;;;;;;;26.45;18.38;;;7.70;99.90;;;;;;5029408;28;20204;-74
2024/03/02 03:14:57;;;;;;;24.92;17.10;;;7.70;99.90;;;;;;5031726;28;20207;-73
2024/03/02 03:17:24;;;;;;;29.33;18.67;;;7.70;99.90;;;;;;5031985;28;20221;-74
2024/03/02 03:19:51;;;;;;;33.72;22.10;;;7.70;99.90;;;;;;5025756;28;20228;-72
2024/03/02 03:22:18;;;;;;;31.35;21.50;;;7.60;99.90;;;;;;5040732;28;20204;-72
2024/03/02 03:24:45;;;;;;;25.55;19.73;;;7.60;99.90;;;;;;5031830;28;20254;-74
2024/03/02 03:27:14;;;;;;;31.40;20.70;;;7.60;99.90;;;;;;5028702;28;20752;-72
2024/03/02 03:29:41;;;;;;;26.77;20.35;;;7.60;99.90;;;;;;5032513;28;20259;-72
2024/03/02 03:32:09;;;;;;;24.70;17.55;;;7.60;99.90;;;;;;5043388;28;20204;-71
2024/03/02 03:34:36;;;;;;;25.73;17.65;;;7.60;99.90;;;;;;5038843;28;20223;-72
2024/03/02 03:37:04;;;;;;;32.88;17.27;;;7.60;99.90;;;;;;5033952;28;20643;-73
2024/03/02 03:39:31;;;;;;;25.98;20.10;;;7.60;99.90;;;;;;5031925;28;20219;-73
2024/03/02 03:41:58;;;;;;;29.90;18.88;;;7.60;99.90;;;;;;5036368;28;20204;-71
2024/03/02 03:44:25;;;;;;;33.53;19.05;;;7.60;99.90;;;;;;5042671;28;20289;-73
2024/03/02 03:46:52;;;;;;;23.40;16.52;;;7.60;99.90;;;;;;5034637;28;20547;-74
2024/03/02 03:49:20;;;;;;;24.15;15.32;;;7.60;99.90;;;;;;5045324;28;20291;-71
2024/03/02 03:51:47;;;;;;;19.70;16.50;;;7.60;99.90;;;;;;5031734;28;20283;-72
2024/03/02 03:54:14;;;;;;;18.83;13.75;;;7.50;99.90;;;;;;5033503;28;20278;-72
2024/03/02 03:56:41;;;;;;;17.98;14.30;;;7.50;99.90;;;;;;5038370;28;20278;-73
2024/03/02 03:59:19;;;;;;;24.35;18.90;;;7.50;99.90;;;;;;5032178;28;20262;-71
2024/03/02 04:01:46;;;;;;;26.20;16.85;;;7.50;99.90;;;;;;5019586;28;20208;-72
2024/03/02 04:04:13;;;;;;;21.05;15.75;;;7.50;99.90;;;;;;5025073;28;20216;-72
2024/03/02 04:06:48;;;;;;;25.33;16.50;;;7.50;99.90;;;;;;5037530;28;20267;-74
2024/03/02 04:09:15;;;;;;;24.90;14.40;;;7.50;99.90;;;;;;5031727;28;20236;-74
2024/03/02 04:11:42;;;;;;;19.00;14.40;;;7.50;99.90;;;;;;5025739;28;20609;-74
2024/03/02 04:14:09;;;;;;;20.20;13.88;;;7.50;99.90;;;;;;5032198;28;20724;-75
2024/03/02 04:16:36;;;;;;;18.17;13.98;;;7.50;99.90;;;;;;5033705;28;20205;-74
2024/03/02 04:19:03;;;;;;;20.48;14.15;;;7.60;99.90;;;;;;5034542;28;20212;-72
2024/03/02 04:21:36;;;;;;;17.17;14.30;;;7.60;99.90;;;;;;5024456;28;20200;-73
2024/03/02 04:24:04;;;;;;;18.45;14.30;;;7.60;99.90;;;;;;5036543;28;20228;-74
2024/03/02 04:26:31;;;;;;;20.40;15.63;;;7.60;99.90;;;;;;5037111;28;20247;-74
2024/03/02 04:28:58;;;;;;;20.90;14.38;;;7.60;99.90;;;;;;5045021;28;20289;-72
2024/03/02 04:31:25;;;;;;;16.33;13.77;;;7.50;99.90;;;;;;5036507;28;20262;-71
2024/03/02 04:33:52;;;;;;;22.35;15.23;;;7.60;99.90;;;;;;5036980;28;20229;-72
2024/03/02 04:36:23;;;;;;;19.27;13.68;;;7.50;99.90;;;;;;5041708;28;20212;-74
2024/03/02 04:38:50;;;;;;;19.88;15.55;;;7.50;99.90;;;;;;5036854;28;20255;-73
2024/03/02 04:41:19;;;;;;;18.83;13.77;;;7.50;99.90;;;;;;5044862;28;20201;-73
2024/03/02 04:43:46;;;;;;;20.13;14.63;;;7.60;99.90;;;;;;5044610;28;20232;-72
2024/03/02 04:46:13;;;;;;;19.52;15.13;;;7.60;99.90;;;;;;5020397;28;20271;-74
2024/03/02 04:48:40;;;;;;;21.20;14.10;;;7.50;99.90;;;;;;5035893;28;20229;-73
2024/03/02 04:51:07;;;;;;;19.63;14.65;;;7.50;99.90;;;;;;5045873;28;20270;-73
2024/03/02 04:53:34;;;;;;;14.82;12.57;;;7.40;99.90;;;;;;5036790;28;20303;-73
2024/03/02 04:58:47;;;;;;;16.48;13.05;;;7.50;99.90;;;;;;5036363;28;20690;-74
2024/03/02 05:01:14;;;;;;;16.17;12.32;;;7.40;99.90;;;;;;5052923;28;20206;-72
2024/03/02 05:03:41;;;;;;;17.48;13.25;;;7.40;99.90;;;;;;5055389;28;20225;-74
2024/03/02 05:06:09;;;;;;;15.88;12.73;;;7.50;99.90;;;;;;5053962;28;20197;-74
2024/03/02 05:08:36;;;;;;;19.83;13.25;;;7.50;99.90;;;;;;5049005;28;20235;-73
2024/03/02 05:13:44;;;;;;;20.83;12.88;;;7.50;99.90;;;;;;5051544;28;20216;-74
2024/03/02 05:16:12;;;;;;;17.63;13.52;;;7.50;99.90;;;;;;5058067;28;20200;-74
2024/03/02 05:18:39;;;;;;;18.45;14.23;;;7.40;99.90;;;;;;5052412;28;20682;-72
2024/03/02 05:21:06;;;;;;;16.65;12.20;;;7.50;99.90;;;;;;5043775;28;20841;-74
2024/03/02 05:23:33;;;;;;;15.02;12.73;;;7.50;99.90;;;;;;5038023;28;20254;-71
2024/03/02 05:26:01;;;;;;;17.10;12.10;;;7.40;99.90;;;;;;5032333;28;20725;-72
2024/03/02 05:28:28;;;;;;;17.08;13.50;;;7.40;99.90;;;;;;5036876;28;20219;-75
2024/03/02 05:30:55;;;;;;;17.35;13.20;;;7.50;99.90;;;;;;5036642;28;20255;-71
2024/03/02 05:33:24;;;;;;;15.80;12.35;;;7.50;99.90;;;;;;5039237;28;20640;-73
2024/03/02 05:35:51;;;;;;;17.23;13.18;;;7.50;99.90;;;;;;5037143;28;20259;-72
2024/03/02 05:38:18;;;;;;;17.10;14.13;;;7.50;99.90;;;;;;5035676;28;20224;-72
2024/03/02 05:40:45;;;;;;;15.80;13.20;;;7.40;99.90;;;;;;5034898;28;20212;-72
2024/03/02 05:43:12;;;;;;;17.98;12.73;;;7.40;99.90;;;;;;5048136;28;20270;-71
2024/03/02 05:45:39;;;;;;;17.40;13.75;;;7.50;99.90;;;;;;5042323;28;20224;-72
2024/03/02 05:48:07;;;;;;;15.75;13.18;;;7.50;99.90;;;;;;5031680;28;20230;-72
2024/03/02 05:50:35;;;;;;;18.77;12.50;;;7.40;99.90;;;;;;5024868;28;20205;-74
2024/03/02 05:53:02;;;;;;;16.13;12.70;;;7.40;99.90;;;;;;5031476;28;20262;-73
2024/03/02 05:55:29;;;;;;;19.65;14.57;;;7.40;99.90;;;;;;5041218;28;20665;-73
2024/03/02 05:58:11;;;;;;;20.75;15.18;;;7.40;99.90;;;;;;5033649;28;20282;-74
2024/03/02 06:00:38;;;;;;;18.77;15.13;;;7.40;99.90;;;;;;5033573;28;20208;-72
2024/03/02 06:03:06;;;;;;;15.20;13.30;;;7.40;99.90;;;;;;5041708;28;20228;-73
2024/03/02 06:05:33;;;;;;;18.50;13.52;;;7.40;99.90;;;;;;5029517;28;20217;-72
2024/03/02 06:08:01;;;;;;;18.25;14.25;;;7.40;99.90;;;;;;5027193;28;20206;-75
2024/03/02 06:10:28;;;;;;;18.48;14.30;;;7.40;99.90;;;;;;5033637;28;20201;-73
2024/03/02 06:12:55;;;;;;;21.25;14.68;;;7.40;99.90;;;;;;5028093;28;20228;-73
2024/03/02 06:15:22;;;;;;;17.25;13.73;;;7.40;99.90;;;;;;5041338;28;20212;-71
2024/03/02 06:17:49;;;;;;;18.08;12.93;;;7.40;99.90;;;;;;5032910;28;20263;-70
2024/03/02 06:20:16;;;;;;;19.00;14.18;;;7.40;99.90;;;;;;5031155;28;20251;-72
2024/03/02 06:22:43;;;;;;;17.95;12.50;;;7.50;99.90;;;;;;5035380;28;20231;-72
2024/03/02 06:25:11;;;;;;;19.90;15.80;;;7.50;99.90;;;;;;5037498;28;20627;-74
2024/03/02 06:27:38;;;;;;;19.42;15.32;;;7.50;99.90;;;;;;5042344;28;20649;-72
2024/03/02 06:30:06;;;;;;;21.67;15.57;;;7.50;99.90;;;;;;5036167;28;20196;-72
2024/03/02 06:32:33;;;;;;;17.35;14.38;;;7.50;99.90;;;;;;5039319;28;20714;-74
2024/03/02 06:35:00;;;;;;;20.85;13.75;;;7.60;99.90;;;;;;5036628;28;20235;-73
2024/03/02 06:37:27;;;;;;;17.60;13.35;;;7.60;99.90;;;;;;5034554;28;20235;-73
2024/03/02 06:39:54;;;;;;;20.65;15.40;;;7.70;99.90;;;;;;5040265;28;20263;-73
2024/03/02 06:42:24;;;;;;;23.23;15.00;;;7.80;99.90;;;;;;5034972;28;20209;-73
2024/03/02 06:44:51;;;;;;;16.58;12.70;;;7.80;99.90;;;;;;5037612;28;20246;-75
2024/03/02 06:47:20;;;;;;;18.17;14.27;;;7.90;99.90;;;;;;5025579;28;20663;-74
2024/03/02 06:49:46;;;;;;;25.70;14.93;;;7.90;99.90;;;;;;5039650;28;20212;-74
2024/03/02 06:52:13;;;;;;;18.90;15.23;;;7.90;99.90;;;;;;5032860;28;20216;-74
2024/03/02 06:54:40;;;;;;;22.88;16.88;;;8.00;99.90;;;;;;5040272;28;20232;-75
2024/03/02 06:57:07;;;;;;;19.20;14.02;;;8.10;99.90;;;;;;5033757;28;20255;-74
2024/03/02 06:59:36;;;;;;;15.07;13.30;;;8.10;99.90;;;;;;5037063;28;20216;-72
2024/03/02 07:02:03;;;;;;;16.65;13.05;;;8.20;99.90;;;;;;5037036;28;20204;-73
2024/03/02 07:04:30;;;;;;;18.40;15.07;;;8.30;99.90;;;;;;5032339;28;20225;-72
2024/03/02 07:06:57;;;;;;;16.33;13.38;;;8.40;99.90;;;;;;5039358;28;20200;-73
2024/03/02 07:09:24;;;;;;;16.55;12.13;;;8.60;99.90;;;;;;5039915;28;20243;-73
2024/03/02 07:11:51;;;;;;;20.63;14.60;;;8.70;99.90;;;;;;5032695;28;20205;-72
2024/03/02 07:14:18;;;;;;;17.45;14.02;;;8.90;99.90;;;;;;5022193;28;20228;-71
2024/03/02 07:16:46;;;;;;;24.60;14.95;;;9.10;99.90;;;;;;5032980;28;20224;-74
2024/03/02 07:19:13;;;;;;;16.30;13.23;;;9.40;99.90;;;;;;5034783;28;20235;-73
2024/03/02 07:21:41;;;;;;;16.58;12.68;;;9.80;99.90;;;;;;5040914;28;20204;-74
2024/03/02 07:24:12;;;;;;;19.65;13.90;;;10.20;99.90;;;;;;5034497;28;20629;-74
2024/03/02 07:26:39;;;;;;;14.98;12.70;;;10.40;99.90;;;;;;5028836;28;20232;-74
2024/03/02 07:29:06;;;;;;;14.90;13.05;;;10.50;99.90;;;;;;5040724;28;20281;-74
2024/03/02 07:31:33;;;;;;;15.52;12.57;;;10.60;99.90;;;;;;5040223;28;20205;-73
2024/03/02 07:34:01;;;;;;;18.88;12.57;;;10.50;99.90;;;;;;5040848;28;20332;-75
2024/03/02 07:36:28;;;;;;;19.33;14.80;;;10.50;99.90;;;;;;5034884;28;20236;-75
2024/03/02 07:38:55;;;;;;;15.90;13.43;;;10.50;99.90;;;;;;5040134;28;20290;-69
2024/03/02 07:41:22;;;;;;;19.58;13.75;;;10.60;99.90;;;;;;5039547;28;20200;-73
2024/03/02 07:43:49;;;;;;;18.90;12.57;;;10.80;99.90;;;;;;5032604;28;20225;-74
2024/03/02 07:46:17;;;;;;;14.68;12.38;;;10.90;99.90;;;;;;5033656;28;20247;-71
2024/03/02 07:48:44;;;;;;;18.55;12.73;;;10.90;99.90;;;;;;5037961;28;20696;-72
2024/03/02 07:51:13;;;;;;;19.23;13.30;;;10.80;99.90;;;;;;5040835;28;20208;-76
2024/03/02 07:53:40;;;;;;;21.92;14.65;;;10.60;99.90;;;;;;5040974;28;20322;-71
2024/03/02 07:56:07;;;;;;;23.00;18.33;;;10.40;99.90;;;;;;5064782;28;20244;-75
2024/03/02 07:58:35;;;;;;;18.10;14.70;;;10.20;99.90;;;;;;5054200;28;20236;-72
2024/03/02 08:01:02;;;;;;;18.30;14.85;;;10.20;99.90;;;;;;5048891;28;20263;-73
2024/03/02 08:03:29;;;;;;;19.83;15.60;;;10.10;99.90;;;;;;5033589;28;20223;-71
2024/03/02 08:05:56;;;;;;;21.63;14.68;;;10.00;99.90;;;;;;5034202;28;20686;-77
2024/03/02 08:08:25;;;;;;;17.40;13.98;;;9.90;99.90;;;;;;5040797;28;20248;-73
2024/03/02 08:10:52;;;;;;;19.95;15.27;;;9.80;99.90;;;;;;5030839;28;20208;-72
2024/03/02 08:13:19;;;;;;;23.33;16.30;;;9.80;99.90;;;;;;5032642;28;20220;-77
2024/03/02 08:15:46;;;;;;;21.50;16.35;;;9.80;99.90;;;;;;5038833;28;20205;-73
2024/03/02 08:18:13;;;;;;;21.15;14.35;;;9.80;99.90;;;;;;5039917;28;20319;-74
2024/03/02 08:20:41;;;;;;;17.80;14.32;;;9.90;99.90;;;;;;5049300;28;20208;-71
2024/03/02 08:23:09;;;;;;;20.00;14.27;;;10.00;99.90;;;;;;5024969;28;20224;-74
2024/03/02 08:25:38;;;;;;;21.88;16.63;;;9.90;99.90;;;;;;5029640;28;20659;-74
2024/03/02 08:28:06;;;;;;;21.25;15.90;;;9.90;99.90;;;;;;5036552;28;20201;-73
2024/03/02 08:30:33;;;;;;;20.48;16.73;;;9.90;99.90;;;;;;5033706;28;20264;-74
2024/03/02 08:33:00;;;;;;;21.17;14.75;;;10.00;99.90;;;;;;5024267;28;20299;-75
2024/03/02 08:35:28;;;;;;;20.33;16.23;;;10.00;99.90;;;;;;5032060;28;20204;-75
2024/03/02 08:37:53;;;;;;;24.60;15.60;;;10.20;99.90;;;;;;5034217;28;20205;-75
2024/03/02 08:40:20;;;;;;;18.13;15.00;;;10.20;99.90;;;;;;5029310;28;20213;-71
2024/03/02 08:42:49;;;;;;;18.67;14.43;;;10.20;99.90;;;;;;5033145;28;20471;-70
2024/03/02 08:47:44;;;;;;;20.70;15.10;;;10.60;99.90;;;;;;5022182;28;20246;-73
2024/03/02 08:50:11;;;;;;;15.45;12.80;;;11.20;99.90;;;;;;5033097;28;20291;-75
2024/03/02 08:52:38;;;;;;;17.80;14.30;;;12.10;99.90;;;;;;5034571;28;20649;-73
2024/03/02 08:55:06;;;;;;;17.42;13.68;;;13.20;99.90;;;;;;5012152;28;20233;-74
2024/03/02 08:57:34;;;;;;;15.97;13.10;;;14.40;99.90;;;;;;5019738;28;20214;-73
2024/03/02 09:00:02;;;;;;;16.67;13.47;;;15.30;99.90;;;;;;5021211;28;21006;-72
2024/03/02 09:02:29;;;;;;;15.50;12.67;;;15.80;99.90;;;;;;5020261;28;20492;-74
2024/03/02 09:04:57;;;;;;;16.77;13.10;;;16.20;99.80;;;;;;5025107;28;20447;-73
2024/03/02 09:07:24;;;;;;;15.90;13.57;;;16.60;99.60;;;;;;5023232;28;20472;-73
2024/03/02 09:09:52;;;;;;;18.40;13.33;;;16.50;97.80;;;;;;5025262;28;20444;-73
2024/03/02 09:12:19;;;;;;;16.57;11.90;;;17.40;98.00;;;;;;5017019;28;20440;-74
2024/03/02 09:14:47;;;;;;;19.27;13.33;;;17.30;96.90;;;;;;5003042;28;20465;-74
2024/03/02 09:17:15;;;;;;;20.47;14.10;;;17.80;96.90;;;;;;5017684;28;20559;-74
2024/03/02 09:19:42;;;;;;;13.50;11.07;;;18.10;96.20;;;;;;5016011;28;20674;-73
2024/03/02 09:22:09;;;;;;;16.90;12.43;;;18.40;94.90;;;;;;5030491;28;20935;-73
2024/03/02 09:24:36;;;;;;;14.00;11.63;;;18.00;94.30;;;;;;5024605;28;20527;-74
2024/03/02 09:27:03;;;;;;;14.83;12.20;;;17.90;94.40;;;;;;5026260;28;20517;-74
2024/03/02 09:29:30;;;;;;;14.43;11.50;;;17.90;94.70;;;;;;5027927;28;20456;-73
2024/03/02 09:31:57;;;;;;;14.80;12.40;;;17.60;94.90;;;;;;5023108;28;20503;-73
2024/03/02 09:34:26;;;;;;;15.93;12.20;;;17.40;95.30;;;;;;5029276;28;20467;-73
2024/03/02 09:36:52;;;;;;;18.37;13.70;;;17.60;95.00;;;;;;5014078;28;20484;-73
2024/03/02 09:39:20;;;;;;;14.67;12.70;;;17.30;94.40;;;;;;5032559;28;20488;-76
2024/03/02 09:41:47;;;;;;;15.10;12.90;;;17.10;95.60;;;;;;5022219;28;20447;-75
2024/03/02 09:44:15;;;;;;;18.50;12.37;;;17.20;95.40;;;;;;5032160;28;20476;-80
2024/03/02 09:46:43;;;;;;;15.63;11.13;;;17.20;95.90;;;;;;5019861;28;20934;-74
2024/03/02 09:49:11;;;;;;;23.13;13.43;;;17.00;95.30;;;;;;5023268;28;20530;-74
2024/03/02 09:51:40;;;;;;;13.00;10.57;;;16.50;95.50;;;;;;5021293;28;20826;-74
2024/03/02 09:54:08;;;;;;;18.17;12.60;;;16.60;95.80;;;;;;5021770;28;20471;-74
2024/03/02 09:56:35;;;;;;;16.43;12.43;;;16.40;95.40;;;;;;5023664;28;20482;-73
2024/03/02 09:59:02;;;;;;;13.90;10.70;;;16.00;95.90;;;;;;5024008;28;20829;-74
2024/03/02 10:01:29;;;;;;;15.93;12.13;;;16.20;96.30;;;;;;5021213;28;20518;-73
2024/03/02 10:03:59;;;;;;;14.90;11.70;;;17.10;96.30;;;;;;5022170;28;20538;-74
2024/03/02 10:06:27;;;;;;;14.30;11.30;;;18.00;95.20;;;;;;5010211;28;20509;-75
2024/03/02 10:08:56;;;;;;;15.33;12.20;;;18.30;94.30;;;;;;5014744;28;20879;-73
2024/03/02 10:11:29;;;;;;;13.87;11.87;;;18.20;94.00;;;;;;5017011;28;20521;-73
2024/03/02 10:14:10;;;;;;;16.00;13.07;;;17.90;94.30;;;;;;5018683;28;20469;-73
2024/03/02 10:16:38;;;;;;;16.33;11.97;;;18.00;93.80;;;;;;5015254;28;20448;-74
2024/03/02 10:19:20;;;;;;;15.03;12.10;;;17.70;94.10;;;;;;5014983;28;20562;-74
2024/03/02 10:21:48;;;;;;;13.90;11.57;;;17.70;94.30;;;;;;5020362;28;20513;-74
2024/03/02 10:24:16;;;;;;;13.00;10.47;;;17.50;94.30;;;;;;5025750;28;20506;-75
2024/03/02 10:26:43;;;;;;;14.87;11.20;;;17.70;94.40;;;;;;5019784;28;20845;-74
2024/03/02 10:29:10;;;;;;;13.80;11.70;;;17.90;94.10;;;;;;5027249;28;20439;-73
2024/03/02 10:31:38;;;;;;;14.03;11.60;;;17.90;94.20;;;;;;5019368;28;20444;-75
2024/03/02 10:34:06;;;;;;;17.20;12.10;;;17.80;93.60;;;;;;5027606;28;20471;-76
2024/03/02 10:36:34;;;;;;;11.70;10.23;;;17.90;93.90;;;;;;5017833;28;20539;-73
2024/03/02 10:39:03;;;;;;;15.23;10.90;;;18.10;94.00;;;;;;5019273;28;20484;-74
2024/03/02 10:41:35;;;;;;;12.77;10.87;;;18.20;93.80;;;;;;5024649;28;20741;-74
2024/03/02 10:44:03;;;;;;;11.80;9.67;;;17.90;92.90;;;;;;5019915;28;20500;-75
2024/03/02 10:46:31;;;;;;;13.50;9.80;;;18.10;93.40;;;;;;5021012;28;20447;-72
2024/03/02 10:49:00;;;;;;;12.67;11.23;;;18.10;93.20;;;;;;5018093;28;20441;-75
2024/03/02 10:51:31;;;;;;;14.70;10.23;;;17.90;93.20;;;;;;5025905;28;20490;-75
2024/03/02 10:54:00;;;;;;;13.13;10.10;;;17.50;93.30;;;;;;5019998;28;20543;-73
2024/03/02 10:56:30;;;;;;;13.37;9.67;;;16.40;93.80;;;;;;5022367;28;20475;-74
2024/03/02 10:59:04;;;;;;;11.73;9.77;;;16.70;94.50;;;;;;5021606;28;20517;-74
2024/03/02 11:01:33;;;;;;;16.67;11.13;;;16.20;95.10;;;;;;5011148;28;20454;-74
2024/03/02 11:04:03;;;;;;;13.77;10.57;;;16.50;95.50;;;;;;5021890;28;20894;-75
2024/03/02 11:06:32;;;;;;;12.07;8.90;;;16.70;94.70;;;;;;5020349;28;20452;-74
2024/03/02 11:09:03;;;;;;;13.80;10.30;;;16.60;95.00;;;;;;5016263;28;20532;-74
2024/03/02 11:11:34;;;;;;;11.60;9.50;;;16.60;94.60;;;;;;5025013;28;20950;-76
2024/03/02 11:14:08;;;;;;;12.47;8.90;;;16.50;95.30;;;;;;5017160;28;20465;-76
2024/03/02 11:16:36;;;;;;;14.30;9.93;;;16.60;95.20;;;;;;5020807;28;20445;-76
2024/03/02 11:19:06;;;;;;;10.63;8.50;;;16.40;95.20;;;;;;5017334;28;20516;-74
2024/03/02 11:21:34;;;;;;;11.40;8.17;;;16.50;95.10;;;;;;5016710;28;20876;-74
2024/03/02 11:24:02;;;;;;;12.70;7.23;;;16.30;94.80;;;;;;5018423;28;20484;-74
2024/03/02 11:26:29;;;;;;;13.53;8.90;;;16.30;95.20;;;;;;5020423;28;20460;-76
2024/03/02 11:28:58;;;;;;;11.20;7.97;;;16.20;95.60;;;;;;5020418;28;20499;-74
2024/03/02 11:31:59;;;;;;;12.40;8.97;;;16.30;95.20;;;;;;5019168;28;20990;-73
2024/03/02 11:34:30;;;;;;;14.23;10.13;;;16.40;95.20;;;;;;5017453;28;20552;-74
2024/03/02 11:36:58;;;;;;;13.63;7.93;;;16.20;95.40;;;;;;5016736;28;20523;-72
2024/03/02 11:39:26;;;;;;;10.73;8.30;;;16.00;95.30;;;;;;5002952;28;20574;-74
2024/03/02 11:41:52;;;;;;;11.37;7.93;;;16.00;95.30;;;;;;5018955;28;20448;-74
2024/03/02 11:44:20;;;;;;;10.90;8.40;;;16.20;95.50;;;;;;5024477;28;20531;-74
2024/03/02 11:46:53;;;;;;;11.40;8.33;;;16.20;95.40;;;;;;5010667;28;20544;-75
2024/03/02 11:49:38;;;;;;;10.17;8.03;;;16.30;95.50;;;;;;5011107;28;20766;-74
2024/03/02 11:52:07;;;;;;;10.68;8.07;;;15.80;95.30;;;;;;5010269;28;20521;-76
2024/03/02 11:54:35;;;;;;;11.35;9.38;;;15.70;95.30;;;;;;5017342;28;20313;-75
2024/03/02 11:57:04;;;;;;;10.30;8.63;;;15.70;95.50;;;;;;5014231;28;20750;-75
2024/03/02 11:59:31;;;;;;;13.45;7.75;;;15.60;95.90;;;;;;5009243;28;20252;-76
2024/03/02 12:02:00;;;;;;;8.88;7.38;;;15.50;96.00;;;;;;5017743;28;20255;-74
2024/03/02 12:04:27;;;;;;;10.90;8.13;;;15.50;96.30;;;;;;5010152;28;20766;-74
2024/03/02 12:07:00;;;;;;;11.67;8.13;;;15.50;96.10;;;;;;5012622;28;20236;-73
2024/03/02 12:09:27;;;;;;;9.70;8.07;;;15.40;96.10;;;;;;5013564;28;20525;-74
2024/03/02 12:12:05;;;;;;;10.50;8.17;;;15.50;96.20;;;;;;5018846;28;20580;-73
2024/03/02 12:14:32;;;;;;;9.60;8.07;;;15.30;96.10;;;;;;5011817;28;20523;-74
2024/03/02 12:17:01;;;;;;;11.80;8.90;;;15.30;96.40;;;;;;5008871;28;20477;-75
2024/03/02 12:19:29;;;;;;;8.27;6.93;;;15.20;96.60;;;;;;5005480;28;20485;-76
2024/03/02 12:21:57;;;;;;;8.20;6.63;;;15.20;96.50;;;;;;5002490;28;20481;-74
2024/03/02 12:24:25;;;;;;;7.30;6.43;;;15.20;96.70;;;;;;5021855;28;21046;-75
2024/03/02 12:26:52;;;;;;;7.43;6.63;;;15.00;96.50;;;;;;5015794;28;20847;-73
2024/03/02 12:29:20;;;;;;;12.70;7.38;;;15.00;96.70;;;;;;5008738;28;20209;-74
2024/03/02 12:31:49;;;;;;;8.65;6.60;;;14.90;96.70;;;;;;5022945;28;20284;-74
2024/03/02 12:34:19;;;;;;;10.32;7.57;;;14.90;96.70;;;;;;5011915;28;20226;-74
2024/03/02 12:36:49;;;;;;;14.32;8.70;;;14.90;97.00;;;;;;5016356;28;20286;-75
2024/03/02 12:39:17;;;;;;;7.80;6.45;;;14.90;97.20;;;;;;5017619;28;20202;-73
2024/03/02 12:41:44;;;;;;;9.80;6.78;;;14.80;96.90;;;;;;5022866;28;20216;-74
2024/03/02 12:44:11;;;;;;;11.45;7.68;;;14.80;97.30;;;;;;5012246;28;20280;-75
2024/03/02 12:46:38;;;;;;;12.88;7.55;;;14.80;97.30;;;;;;5017377;28;20244;-76
2024/03/02 12:49:13;;;;;;;9.18;6.85;;;14.90;97.30;;;;;;5019443;28;20217;-75